Time;durP1;ratioP1;P1;durP2;ratioP2;P2;SDS_P1;SDS_P2;PMS_P1;PMS_P2;Temp;Humidity;BMP_temperature;BMP_pressure;BME280_temperature;BME280_humidity;BME280_pressure;Samples;Min_cycle;Max_cycle;Signal;HPM_P1;HPM_P2
2023/07/04 00:01:24;;;;;;;;;22.00;20.67;;;;;21.21;88.04;99429.31;6310658;20;2839900;-45
2023/07/04 00:03:56;;;;;;;;;22.00;20.00;;;;;21.00;89.13;99427.06;6317918;20;3573162;-46
2023/07/04 00:06:29;;;;;;;;;19.33;19.33;;;;;21.30;86.76;99432.88;6280844;20;2837807;-50
2023/07/04 00:08:58;;;;;;;;;18.33;16.67;;;;;21.21;86.04;99432.88;6315360;20;2838941;-49
2023/07/04 00:11:29;;;;;;;;;21.67;18.00;;;;;21.54;83.64;99435.66;6314904;20;3571211;-50
2023/07/04 00:13:58;;;;;;;;;20.00;17.00;;;;;21.46;81.82;99435.69;6278891;20;2833868;-47
2023/07/04 00:16:26;;;;;;;;;22.33;19.00;;;;;20.97;86.28;99443.78;6287323;20;3583664;-51
2023/07/04 00:18:54;;;;;;;;;21.67;20.33;;;;;20.94;88.45;99447.69;6283593;20;3559633;-48
2023/07/04 00:21:24;;;;;;;;;20.67;19.67;;;;;20.91;88.32;99441.72;6282403;20;3573192;-51
2023/07/04 00:23:55;;;;;;;;;19.33;18.33;;;;;20.95;88.28;99448.53;6284383;20;3563806;-47
2023/07/04 00:26:26;;;;;;;;;25.33;19.00;;;;;20.99;88.90;99456.22;6285262;20;3589844;-50
2023/07/04 00:28:55;;;;;;;;;22.67;20.67;;;;;21.08;86.35;99454.34;6282278;20;2834650;-49
2023/07/04 00:31:24;;;;;;;;;19.00;17.67;;;;;21.27;82.71;99456.81;6312829;20;2844181;-48
2023/07/04 00:33:53;;;;;;;;;19.33;19.33;;;;;21.51;81.06;99457.84;6315660;20;3571093;-49
2023/07/04 00:36:22;;;;;;;;;20.50;18.00;;;;;21.40;81.45;99450.84;6280991;20;2832585;-48
2023/07/04 00:38:56;;;;;;;;;21.67;18.00;;;;;21.45;81.18;99447.59;6282847;20;3585662;-51
2023/07/04 00:41:29;;;;;;;;;18.00;16.67;;;;;21.20;83.88;99446.72;6314700;20;3568992;-50
2023/07/04 00:44:14;;;;;;;;;17.50;15.00;;;;;21.25;82.84;99453.38;6283355;20;3497536;-49
2023/07/04 00:46:56;;;;;;;;;19.67;15.00;;;;;21.38;80.85;99450.19;6313082;20;3540893;-48
2023/07/04 00:49:43;;;;;;;;;18.33;16.33;;;;;21.35;81.36;99446.88;6313071;20;3564835;-50
2023/07/04 00:52:23;;;;;;;;;19.33;17.33;;;;;21.40;80.55;99439.91;6278936;20;3575373;-47
2023/07/04 00:54:58;;;;;;;;;17.00;15.50;;;;;21.08;82.45;99434.41;6278078;20;2826338;-48
2023/07/04 00:57:31;;;;;;;;;21.50;18.00;;;;;21.04;82.82;99439.34;6276849;20;2832627;-47
2023/07/04 01:00:20;;;;;;;;;14.33;14.00;;;;;20.95;84.65;99445.81;6278675;20;3531549;-50
2023/07/04 01:02:59;;;;;;;;;17.67;16.00;;;;;20.79;86.50;99442.00;6311089;20;2492028;-48
2023/07/04 01:05:40;;;;;;;;;16.67;16.67;;;;;21.02;85.33;99431.31;6315624;20;3568010;-50
2023/07/04 01:08:23;;;;;;;;;21.33;17.67;;;;;20.95;85.70;99438.47;6276502;20;2839924;-52
2023/07/04 01:10:52;;;;;;;;;16.67;16.00;;;;;21.05;84.59;99425.53;6311525;20;3560698;-51
2023/07/04 01:13:34;;;;;;;;;19.50;16.50;;;;;20.87;85.91;99423.94;6276656;20;2826342;-47
2023/07/04 01:16:11;;;;;;;;;19.50;18.50;;;;;20.77;86.97;99430.44;6280093;20;2841942;-50
2023/07/04 01:18:44;;;;;;;;;16.00;16.00;;;;;20.95;87.40;99429.44;6281355;20;2832657;-50
2023/07/04 01:21:15;;;;;;;;;17.00;16.00;;;;;20.57;88.86;99431.72;6278810;20;2831541;-52
2023/07/04 01:24:11;;;;;;;;;17.50;17.00;;;;;21.01;86.83;99435.09;6277610;20;2834857;-51
2023/07/04 01:26:47;;;;;;;;;20.00;15.50;;;;;20.92;86.49;99425.16;6277578;20;2829598;-50
2023/07/04 01:29:17;;;;;;;;;21.00;21.00;;;;;20.99;87.37;99426.19;6281828;20;2843057;-49
2023/07/04 01:31:46;;;;;;;;;19.67;17.67;;;;;20.97;86.25;99427.41;6280385;20;2835783;-51
2023/07/04 01:34:20;;;;;;;;;21.33;20.33;;;;;20.87;87.58;99426.69;6306958;20;2835684;-51
2023/07/04 01:36:49;;;;;;;;;17.00;15.00;;;;;20.78;87.07;99434.84;6309169;20;2806663;-49
2023/07/04 01:39:17;;;;;;;;;16.00;14.50;;;;;20.68;88.62;99428.69;6277376;20;2804944;-52
2023/07/04 01:41:46;;;;;;;;;16.50;15.00;;;;;20.77;87.89;99424.97;6276478;20;2818020;-48
2023/07/04 01:44:16;;;;;;;;;19.00;16.00;;;;;20.66;88.88;99430.72;6281308;20;2821133;-53
2023/07/04 01:46:45;;;;;;;;;22.00;17.00;;;;;20.87;87.95;99427.53;6280163;20;2837795;-46
2023/07/04 01:49:13;;;;;;;;;17.00;17.00;;;;;20.83;87.61;99432.47;6281326;20;2829458;-50
2023/07/04 01:51:41;;;;;;;;;19.33;19.33;;;;;20.92;87.14;99429.75;6280308;20;3569093;-49
2023/07/04 01:54:17;;;;;;;;;17.50;16.50;;;;;20.86;86.56;99436.75;6275931;20;2831582;-50
2023/07/04 01:56:52;;;;;;;;;20.00;17.50;;;;;20.99;86.65;99444.47;6278980;20;2839907;-51
2023/07/04 01:59:21;;;;;;;;;18.00;18.00;;;;;20.56;88.38;99435.44;6281539;20;3577327;-46
2023/07/04 02:01:49;;;;;;;;;19.00;19.00;;;;;20.50;89.56;99433.34;6276429;20;2831722;-50
2023/07/04 02:04:18;;;;;;;;;18.50;18.00;;;;;20.51;90.70;99444.13;6278396;20;2835813;-47
2023/07/04 02:06:46;;;;;;;;;21.67;19.33;;;;;20.85;88.21;99447.81;6282366;20;3573221;-47
2023/07/04 02:09:16;;;;;;;;;22.00;18.67;;;;;20.79;88.46;99447.47;6275602;20;2841977;-45
2023/07/04 02:11:46;;;;;;;;;22.67;18.33;;;;;20.74;88.68;99443.53;6313726;20;3573200;-45
2023/07/04 02:14:16;;;;;;;;;22.67;17.67;;;;;20.75;89.25;99448.84;6280061;20;3578487;-46
2023/07/04 02:16:44;;;;;;;;;26.00;19.00;;;;;20.81;88.42;99450.88;6278597;20;2850341;-45
2023/07/04 02:19:13;;;;;;;;;16.50;16.50;;;;;20.87;88.23;99448.53;6276484;20;2822386;-46
2023/07/04 02:21:42;;;;;;;;;17.33;17.33;;;;;20.62;89.64;99445.72;6280839;20;3571157;-49
2023/07/04 02:24:10;;;;;;;;;21.00;17.50;;;;;20.54;90.43;99448.41;6308899;20;2827368;-45
2023/07/04 02:26:39;;;;;;;;;20.00;17.00;;;;;20.69;88.77;99446.75;6279023;20;2827416;-46
2023/07/04 02:29:08;;;;;;;;;19.67;17.67;;;;;20.75;87.75;99447.97;6278942;20;2838985;-48
2023/07/04 02:31:36;;;;;;;;;19.67;16.33;;;;;20.83;87.96;99448.00;6313200;20;3566620;-47
2023/07/04 02:34:04;;;;;;;;;19.00;18.00;;;;;20.79;88.11;99452.06;6277089;20;2841948;-48
2023/07/04 02:36:32;;;;;;;;;19.50;16.50;;;;;20.62;88.89;99462.09;6276890;20;2837911;-48
2023/07/04 02:39:01;;;;;;;;;23.67;20.33;;;;;20.60;90.43;99458.66;6285103;20;3578374;-46
2023/07/04 02:41:29;;;;;;;;;17.00;17.00;;;;;20.56;89.50;99463.59;6284723;20;2837819;-47
2023/07/04 02:43:59;;;;;;;;;20.33;20.33;;;;;20.39;90.93;99467.22;6283133;20;2835743;-45
2023/07/04 02:46:27;;;;;;;;;22.67;19.33;;;;;20.56;89.89;99470.91;6318180;20;3581541;-49
2023/07/04 02:48:56;;;;;;;;;19.00;17.00;;;;;20.48;90.61;99471.69;6283575;20;2829423;-50
2023/07/04 02:51:25;;;;;;;;;20.67;17.33;;;;;20.48;90.75;99476.28;6281907;20;2842002;-48
2023/07/04 02:53:53;;;;;;;;;20.33;18.00;;;;;20.44;90.44;99475.78;6314161;20;3574216;-46
2023/07/04 02:56:21;;;;;;;;;20.50;16.00;;;;;20.46;89.60;99484.66;6281289;20;2833585;-46
2023/07/04 02:58:49;;;;;;;;;19.00;16.00;;;;;20.63;90.45;99479.31;6283957;20;2817084;-51
2023/07/04 03:01:17;;;;;;;;;21.50;19.00;;;;;20.50;91.04;99490.63;6281818;20;2846158;-46
2023/07/04 03:03:46;;;;;;;;;21.67;18.33;;;;;20.53;91.31;99496.59;6283636;20;2835720;-47
2023/07/04 03:06:15;;;;;;;;;20.00;18.00;;;;;20.45;92.24;99504.75;6316550;20;3569025;-45
2023/07/04 03:08:45;;;;;;;;;19.67;17.00;;;;;20.41;92.45;99502.53;6285221;20;3571114;-47
2023/07/04 03:11:13;;;;;;;;;18.00;17.00;;;;;20.45;92.92;99502.03;6281963;20;2833614;-47
2023/07/04 03:13:42;;;;;;;;;25.33;17.33;;;;;20.54;92.18;99497.53;6284489;20;2849227;-47
2023/07/04 03:16:10;;;;;;;;;19.00;15.67;;;;;20.47;92.10;99493.69;6320478;20;3535763;-47
2023/07/04 03:18:39;;;;;;;;;18.33;17.67;;;;;20.58;90.89;99501.63;6314652;20;2841993;-49
2023/07/04 03:21:08;;;;;;;;;16.00;14.50;;;;;20.65;89.66;99505.41;6312721;20;2809839;-45
2023/07/04 03:23:36;;;;;;;;;22.00;20.00;;;;;20.69;89.75;99509.50;6282792;20;2844206;-47
2023/07/04 03:26:04;;;;;;;;;20.50;17.00;;;;;20.64;91.42;99509.13;6317251;20;2832588;-45
2023/07/04 03:28:32;;;;;;;;;17.00;17.00;;;;;20.59;90.80;99514.25;6282272;20;2831531;-46
2023/07/04 03:31:00;;;;;;;;;17.00;15.00;;;;;20.62;89.37;99513.91;6280323;20;2820127;-47
2023/07/04 03:33:28;;;;;;;;;17.50;17.50;;;;;20.72;89.58;99521.97;6282123;20;2835820;-45
2023/07/04 03:35:57;;;;;;;;;21.00;16.67;;;;;20.53;91.47;99517.56;6285783;20;3570083;-47
2023/07/04 03:38:28;;;;;;;;;14.00;14.00;;;;;20.58;91.32;99517.97;6278960;20;2810832;-45
2023/07/04 03:40:56;;;;;;;;;13.50;13.00;;;;;20.51;92.13;99519.59;6281994;20;2801430;-48
2023/07/04 03:43:26;;;;;;;;;15.00;14.50;;;;;20.46;92.92;99527.41;6281692;20;2801307;-46
2023/07/04 03:45:55;;;;;;;;;21.33;20.00;;;;;20.42;94.40;99528.78;6276932;20;2846137;-48
2023/07/04 03:48:23;;;;;;;;;23.33;18.67;;;;;20.22;95.63;99539.03;6315988;20;3578404;-49
2023/07/04 03:50:52;;;;;;;;;19.00;16.50;;;;;19.98;97.66;99534.25;6283622;20;2824236;-49
2023/07/04 03:53:20;;;;;;;;;21.50;19.00;;;;;20.17;97.71;99543.13;6283648;20;2822237;-51
2023/07/04 03:55:50;;;;;;;;;22.00;20.67;;;;;20.10;98.37;99541.19;6277887;20;2847315;-49
2023/07/04 03:58:18;;;;;;;;;23.33;20.33;;;;;20.07;98.88;99539.63;6313346;20;3568029;-49
2023/07/04 04:00:49;;;;;;;;;22.00;18.33;;;;;20.03;99.78;99534.66;6280100;20;3580444;-45
2023/07/04 04:03:17;;;;;;;;;19.50;19.50;;;;;20.07;99.00;99545.09;6280925;20;2836757;-45
2023/07/04 04:05:46;;;;;;;;;18.67;18.67;;;;;19.99;99.36;99536.00;6286456;20;3604437;-46
2023/07/04 04:08:14;;;;;;;;;21.00;19.00;;;;;20.09;100.00;99531.28;6288933;20;3558685;-47
2023/07/04 04:10:43;;;;;;;;;23.33;20.33;;;;;20.05;99.22;99540.81;6283600;20;3584660;-50
2023/07/04 04:13:10;;;;;;;;;16.00;16.00;;;;;20.06;100.00;99543.34;6283846;20;2492018;-46
2023/07/04 04:15:39;;;;;;;;;23.33;18.33;;;;;19.89;100.00;99534.22;6283570;20;3575295;-46
2023/07/04 04:18:07;;;;;;;;;18.00;16.50;;;;;20.15;100.00;99536.09;6284523;20;2833666;-46
2023/07/04 04:20:36;;;;;;;;;22.67;19.33;;;;;19.94;100.00;99548.22;6281498;20;2852488;-45
2023/07/04 04:23:05;;;;;;;;;20.00;20.00;;;;;20.07;100.00;99544.22;6314085;20;2839895;-44
2023/07/04 04:25:38;;;;;;;;;20.00;19.67;;;;;19.77;100.00;99535.44;6286183;20;3566008;-45
2023/07/04 04:28:08;;;;;;;;;18.33;17.00;;;;;20.07;100.00;99531.44;6278792;20;2834654;-45
2023/07/04 04:30:37;;;;;;;;;19.00;19.00;;;;;19.90;100.00;99529.59;6315225;20;3579457;-47
2023/07/04 04:33:07;;;;;;;;;24.67;21.00;;;;;19.99;100.00;99528.66;6279148;20;2834702;-48
2023/07/04 04:35:39;;;;;;;;;20.67;17.00;;;;;20.06;100.00;99528.88;6316640;20;3569179;-52
2023/07/04 04:38:10;;;;;;;;;20.33;18.67;;;;;19.99;100.00;99527.81;6283434;20;3573269;-46
2023/07/04 04:40:41;;;;;;;;;19.33;18.00;;;;;19.87;100.00;99524.47;6281700;20;3575308;-47
2023/07/04 04:43:09;;;;;;;;;19.00;19.00;;;;;19.95;100.00;99527.25;6282569;20;3569043;-49
2023/07/04 04:45:38;;;;;;;;;19.33;19.00;;;;;20.02;100.00;99524.78;6279744;20;3570066;-45
2023/07/04 04:48:06;;;;;;;;;19.00;16.00;;;;;19.86;100.00;99531.81;6282524;20;3564804;-47
2023/07/04 04:50:36;;;;;;;;;22.00;20.00;;;;;19.92;100.00;99539.34;6278057;20;2839956;-49
2023/07/04 04:53:04;;;;;;;;;20.00;20.00;;;;;19.76;100.00;99539.19;6315036;20;3565893;-47
2023/07/04 04:55:32;;;;;;;;;21.00;20.00;;;;;19.76;100.00;99541.06;6284230;20;3581544;-49
2023/07/04 04:58:01;;;;;;;;;23.33;22.00;;;;;19.65;100.00;99539.41;6279626;20;2843258;-47
2023/07/04 05:00:29;;;;;;;;;17.67;17.00;;;;;19.72;100.00;99541.41;6308775;20;3567077;-48
2023/07/04 05:02:57;;;;;;;;;22.00;19.00;;;;;19.87;100.00;99533.50;6279164;20;2714870;-49
2023/07/04 05:05:26;;;;;;;;;18.67;17.33;;;;;19.90;100.00;99533.19;6313115;20;3569258;-49
2023/07/04 05:07:55;;;;;;;;;19.67;18.00;;;;;19.98;100.00;99534.25;6279132;20;2840917;-47
2023/07/04 05:10:23;;;;;;;;;23.00;20.00;;;;;19.90;100.00;99527.72;6313429;20;3593006;-48
2023/07/04 05:12:51;;;;;;;;;22.33;18.67;;;;;19.94;100.00;99523.69;6279186;20;3576345;-46
2023/07/04 05:15:19;;;;;;;;;22.33;19.00;;;;;19.83;100.00;99525.81;6279183;20;3570081;-49
2023/07/04 05:17:47;;;;;;;;;13.33;13.33;;;;;19.85;100.00;99518.31;6276458;20;3524419;-50
2023/07/04 05:20:22;;;;;;;;;20.67;19.33;;;;;19.80;100.00;99521.53;6279513;20;3579544;-49
2023/07/04 05:22:56;;;;;;;;;21.00;19.00;;;;;19.87;100.00;99513.56;6274317;20;2844090;-50
2023/07/04 05:25:24;;;;;;;;;19.00;17.00;;;;;19.95;100.00;99524.53;6281384;20;2711864;-50
2023/07/04 05:27:52;;;;;;;;;17.00;17.00;;;;;19.88;100.00;99529.78;6312374;20;2808640;-50
2023/07/04 05:30:22;;;;;;;;;19.50;16.00;;;;;19.94;100.00;99526.41;6277166;20;2491985;-51
2023/07/04 05:32:50;;;;;;;;;17.50;16.50;;;;;19.90;100.00;99521.44;6283062;20;2835817;-50
2023/07/04 05:35:19;;;;;;;;;20.00;19.00;;;;;19.86;100.00;99531.81;6282734;20;3575391;-47
2023/07/04 05:37:47;;;;;;;;;21.67;21.67;;;;;19.81;100.00;99539.59;6281985;20;3567026;-50
2023/07/04 05:40:16;;;;;;;;;23.00;20.00;;;;;19.85;100.00;99548.28;6276141;20;2844034;-50
2023/07/04 05:42:44;;;;;;;;;20.00;16.00;;;;;19.63;100.00;99549.59;6283889;20;3571132;-47
2023/07/04 05:45:12;;;;;;;;;19.50;18.50;;;;;19.68;100.00;99548.16;6278761;20;2829462;-48
2023/07/04 05:47:40;;;;;;;;;18.00;18.00;;;;;19.59;100.00;99545.47;6280798;20;2832685;-45
2023/07/04 05:50:09;;;;;;;;;19.50;15.50;;;;;19.67;100.00;99551.06;6278127;20;2815028;-48
2023/07/04 05:52:37;;;;;;;;;20.00;18.50;;;;;19.60;100.00;99558.09;6281576;20;2832600;-51
2023/07/04 05:55:07;;;;;;;;;18.67;17.33;;;;;19.56;100.00;99557.53;6278420;20;2836862;-52
2023/07/04 05:57:35;;;;;;;;;17.00;15.00;;;;;19.61;100.00;99559.78;6314086;20;3541954;-46
2023/07/04 06:00:05;;;;;;;;;19.00;16.33;;;;;19.63;100.00;99565.94;6312704;20;3566020;-48
2023/07/04 06:02:33;;;;;;;;;18.50;15.00;;;;;19.73;100.00;99559.44;6278241;20;2812802;-44
2023/07/04 06:05:01;;;;;;;;;14.33;14.33;;;;;19.63;100.00;99568.69;6281110;20;3525314;-47
2023/07/04 06:07:30;;;;;;;;;18.00;16.50;;;;;19.43;100.00;99554.34;6278850;20;2826409;-48
2023/07/04 06:09:58;;;;;;;;;21.00;19.50;;;;;19.67;100.00;99564.69;6279279;20;2837771;-46
2023/07/04 06:12:30;;;;;;;;;17.33;15.00;;;;;19.62;100.00;99561.53;6281340;20;2500328;-48
2023/07/04 06:14:58;;;;;;;;;19.00;17.00;;;;;19.61;100.00;99562.53;6314941;20;2835817;-45
2023/07/04 06:17:26;;;;;;;;;15.50;14.00;;;;;19.56;100.00;99562.97;6283088;20;2810701;-48
2023/07/04 06:19:55;;;;;;;;;16.50;16.50;;;;;19.66;100.00;99571.97;6285106;20;2830524;-45
2023/07/04 06:22:23;;;;;;;;;19.00;17.00;;;;;19.57;100.00;99574.75;6282343;20;2835738;-46
2023/07/04 06:24:52;;;;;;;;;19.33;18.00;;;;;19.56;100.00;99581.19;6287020;20;3563012;-45
2023/07/04 06:27:20;;;;;;;;;17.00;15.00;;;;;19.65;100.00;99574.84;6314363;20;2814981;-47
2023/07/04 06:29:47;;;;;;;;;14.50;11.00;;;;;19.66;100.00;99576.53;6288023;20;2797155;-48
2023/07/04 06:32:15;;;;;;;;;21.50;16.50;;;;;19.71;100.00;99568.78;6284130;20;2840077;-47
2023/07/04 06:34:44;;;;;;;;;23.00;18.33;;;;;19.65;100.00;99574.84;6286401;20;3581544;-46
2023/07/04 06:37:12;;;;;;;;;17.00;16.00;;;;;19.59;100.00;99583.59;6287641;20;3552463;-51
2023/07/04 06:39:42;;;;;;;;;21.00;18.50;;;;;19.65;100.00;99583.84;6315075;20;2835718;-51
2023/07/04 06:42:10;;;;;;;;;23.00;19.50;;;;;19.80;100.00;99580.59;6285336;20;2828454;-47
2023/07/04 06:44:42;;;;;;;;;16.00;15.00;;;;;19.83;100.00;99580.31;6284532;20;2815913;-47
2023/07/04 06:47:11;;;;;;;;;19.00;17.00;;;;;19.88;100.00;99581.56;6282285;20;2824374;-45
2023/07/04 06:49:39;;;;;;;;;18.00;16.50;;;;;19.77;100.00;99576.31;6287472;20;2831548;-47
2023/07/04 06:52:07;;;;;;;;;19.50;17.50;;;;;19.77;100.00;99589.09;6284682;20;2830631;-50
2023/07/04 06:54:35;;;;;;;;;16.00;16.00;;;;;19.73;100.00;99607.63;6285793;20;2833691;-47
2023/07/04 06:57:07;;;;;;;;;23.67;18.33;;;;;19.76;100.00;99612.75;6283105;20;3583804;-47
2023/07/04 06:59:35;;;;;;;;;16.00;14.00;;;;;19.72;100.00;99627.69;6281347;20;2489861;-45
2023/07/04 07:02:04;;;;;;;;;21.33;21.00;;;;;19.55;100.00;99632.09;6318156;20;3581578;-50
2023/07/04 07:04:32;;;;;;;;;16.33;14.33;;;;;19.64;100.00;99630.31;6288685;20;2492009;-49
2023/07/04 07:07:00;;;;;;;;;18.67;15.33;;;;;19.56;100.00;99625.63;6312597;20;3537538;-52
2023/07/04 07:09:30;;;;;;;;;18.67;16.00;;;;;19.52;100.00;99626.97;6314808;20;3552334;-48
2023/07/04 07:11:58;;;;;;;;;14.67;13.67;;;;;19.57;100.00;99626.50;6291448;20;3527373;-49
2023/07/04 07:14:27;;;;;;;;;15.00;15.00;;;;;19.64;100.00;99627.56;6315146;20;2809653;-45
2023/07/04 07:16:56;;;;;;;;;17.00;13.67;;;;;19.65;100.00;99627.44;6285507;20;3536815;-47
2023/07/04 07:19:26;;;;;;;;;14.67;13.33;;;;;19.70;100.00;99632.47;6282043;20;2500292;-50
2023/07/04 07:21:54;;;;;;;;;19.50;15.00;;;;;19.88;100.00;99632.44;6313853;20;2821125;-47
2023/07/04 07:24:22;;;;;;;;;14.67;14.33;;;;;19.82;100.00;99623.03;6283314;20;2496145;-47
2023/07/04 07:26:53;;;;;;;;;16.67;15.67;;;;;19.80;100.00;99622.34;6314035;20;2492058;-48
2023/07/04 07:29:24;;;;;;;;;16.33;15.33;;;;;19.91;100.00;99624.84;6311113;20;2483641;-47
2023/07/04 07:31:53;;;;;;;;;16.67;14.00;;;;;19.86;100.00;99629.91;6310985;20;2498412;-48
2023/07/04 07:34:22;;;;;;;;;14.67;14.67;;;;;20.00;100.00;99624.91;6315139;20;2475403;-48
2023/07/04 07:36:50;;;;;;;;;14.67;12.67;;;;;20.18;100.00;99625.75;6313862;20;3522173;-49
2023/07/04 07:39:18;;;;;;;;;16.00;13.50;;;;;19.96;100.00;99629.81;6312087;20;2805485;-45
2023/07/04 07:42:20;;;;;;;;;14.67;13.00;;;;;20.24;100.00;99633.28;6285876;20;2799305;-50
2023/07/04 07:44:48;;;;;;;;;18.00;16.50;;;;;20.26;100.00;99625.81;6315813;20;2833680;-47
2023/07/04 07:47:16;;;;;;;;;16.00;14.00;;;;;20.26;100.00;99625.81;6281541;20;2787824;-47
2023/07/04 07:49:44;;;;;;;;;13.67;13.67;;;;;20.22;100.00;99627.16;6310385;20;3527469;-47
2023/07/04 07:52:12;;;;;;;;;14.67;14.67;;;;;20.17;100.00;99626.78;6284820;20;2804618;-52
2023/07/04 07:54:40;;;;;;;;;20.67;17.67;;;;;20.27;100.00;99632.97;6317804;20;3562815;-52
2023/07/04 07:57:09;;;;;;;;;17.50;16.50;;;;;20.08;100.00;99625.81;6284941;20;3422268;-49
2023/07/04 07:59:37;;;;;;;;;23.50;18.50;;;;;20.01;100.00;99627.50;6314171;20;2853399;-46
2023/07/04 08:02:13;;;;;;;;;19.00;18.00;;;;;20.18;100.00;99633.94;6283023;20;2829448;-48
2023/07/04 08:04:41;;;;;;;;;16.00;16.00;;;;;20.20;100.00;99626.47;6285623;20;3561783;-48
2023/07/04 08:07:09;;;;;;;;;16.67;15.00;;;;;20.32;100.00;99629.78;6284232;20;3560678;-49
2023/07/04 08:09:37;;;;;;;;;19.00;18.67;;;;;20.36;100.00;99621.13;6283264;20;3577345;-48
2023/07/04 08:12:06;;;;;;;;;17.00;17.00;;;;;20.87;100.00;99628.63;6282659;20;2834638;-45
2023/07/04 08:14:34;;;;;;;;;17.67;17.33;;;;;20.77;100.00;99636.94;6280024;20;2487819;-45
2023/07/04 08:17:03;;;;;;;;;19.00;19.00;;;;;20.90;100.00;99631.88;6310520;20;2833652;-46
2023/07/04 08:19:32;;;;;;;;;17.67;17.67;;;;;20.93;100.00;99630.72;6309527;20;3571158;-50
2023/07/04 08:22:00;;;;;;;;;20.00;18.33;;;;;20.97;100.00;99622.03;6316253;20;3563923;-47
2023/07/04 08:24:28;;;;;;;;;17.67;15.67;;;;;20.86;100.00;99622.34;6276585;20;3553383;-46
2023/07/04 08:26:58;;;;;;;;;14.33;14.00;;;;;20.96;100.00;99624.97;6277680;20;2489909;-47
2023/07/04 08:29:26;;;;;;;;;17.00;15.00;;;;;20.80;100.00;99637.47;6306450;20;2814873;-49
2023/07/04 08:31:55;;;;;;;;;17.33;17.33;;;;;20.80;100.00;99634.75;6278737;20;2835707;-46
2023/07/04 08:34:24;;;;;;;;;19.33;16.67;;;;;20.90;100.00;99644.69;6313804;20;3571545;-47
2023/07/04 08:36:52;;;;;;;;;16.00;12.00;;;;;20.81;100.00;99641.06;6281227;20;2796190;-44
2023/07/04 08:39:20;;;;;;;;;17.00;16.50;;;;;20.71;100.00;99635.72;6308137;20;2829476;-46
2023/07/04 08:42:02;;;;;;;;;21.67;21.33;;;;;20.62;100.00;99639.41;6278926;20;3576434;-46
2023/07/04 08:44:44;;;;;;;;;18.50;18.50;;;;;20.75;100.00;99664.41;6277058;20;2836128;-49
2023/07/04 08:47:17;;;;;;;;;17.00;15.50;;;;;20.80;100.00;99662.03;6273912;20;2829498;-46
2023/07/04 08:50:02;;;;;;;;;20.00;20.00;;;;;20.74;100.00;99661.81;6273002;20;2832576;-50
2023/07/04 08:52:40;;;;;;;;;19.50;18.00;;;;;20.50;100.00;99666.06;6275188;20;2831552;-48
2023/07/04 08:55:13;;;;;;;;;20.00;18.00;;;;;20.60;100.00;99666.00;6276810;20;2833647;-51
2023/07/04 08:57:53;;;;;;;;;22.33;18.00;;;;;20.57;100.00;99677.22;6278899;20;3575806;-48
2023/07/04 09:00:39;;;;;;;;;20.33;20.33;;;;;20.43;100.00;99675.03;6272920;20;2839901;-46
2023/07/04 09:03:25;;;;;;;;;24.33;21.33;;;;;20.40;100.00;99673.47;6313194;20;3584800;-46
2023/07/04 09:06:14;;;;;;;;;25.00;22.00;;;;;20.50;100.00;99684.28;6278470;20;2843153;-48
2023/07/04 09:08:45;;;;;;;;;28.33;25.33;;;;;20.57;100.00;99683.53;6309866;20;3589866;-43
2023/07/04 09:11:16;;;;;;;;;25.33;24.00;;;;;20.71;100.00;99684.81;6281343;20;3569048;-42
2023/07/04 09:13:53;;;;;;;;;22.33;21.33;;;;;20.49;100.00;99682.59;6274016;20;3574256;-46
2023/07/04 09:16:31;;;;;;;;;21.00;18.67;;;;;20.37;100.00;99685.53;6280575;20;3579502;-44
2023/07/04 09:19:07;;;;;;;;;24.00;24.00;;;;;20.34;100.00;99685.03;6277497;20;3590338;-41
2023/07/04 09:21:39;;;;;;;;;26.00;22.00;;;;;20.48;100.00;99676.25;6280109;20;3585684;-44
2023/07/04 09:24:07;;;;;;;;;26.67;24.00;;;;;20.36;100.00;99675.66;6282064;20;3584802;-42
2023/07/04 09:26:54;;;;;;;;;25.00;23.67;;;;;20.45;100.00;99682.03;6278591;20;3584638;-44
2023/07/04 09:29:24;;;;;;;;;24.00;21.50;;;;;20.44;100.00;99676.75;6269852;20;2826510;-42
2023/07/04 09:32:00;;;;;;;;;21.33;20.67;;;;;20.45;100.00;99673.84;6275742;20;3564927;-42
2023/07/04 09:34:44;;;;;;;;;16.00;16.00;;;;;20.41;100.00;99674.34;6281469;20;3562763;-42
2023/07/04 09:37:16;;;;;;;;;18.33;18.33;;;;;20.36;100.00;99681.13;6308729;20;3575424;-42
2023/07/04 09:39:57;;;;;;;;;22.50;18.00;;;;;20.23;100.00;99680.66;6277767;20;2841954;-43
2023/07/04 09:42:32;;;;;;;;;26.00;23.00;;;;;20.16;100.00;99668.66;6278063;20;3575585;-43
2023/07/04 09:45:22;;;;;;;;;19.67;19.67;;;;;20.39;100.00;99661.72;6279378;20;3575318;-42
2023/07/04 09:47:52;;;;;;;;;25.33;19.67;;;;;20.55;100.00;99663.72;6268493;20;2842115;-42
2023/07/04 09:50:36;;;;;;;;;18.00;18.00;;;;;20.61;100.00;99657.63;6303790;20;2830511;-44
2023/07/04 09:53:09;;;;;;;;;20.33;18.00;;;;;20.58;100.00;99657.09;6281391;20;3561823;-42
2023/07/04 09:55:41;;;;;;;;;23.67;18.00;;;;;20.79;100.00;99651.28;6275957;20;3583617;-43
2023/07/04 09:58:24;;;;;;;;;28.33;23.33;;;;;20.71;100.00;99657.53;6309782;20;3563900;-42
2023/07/04 10:01:18;;;;;;;;;23.67;20.67;;;;;20.75;100.00;99650.75;6275054;20;3566958;-46
2023/07/04 10:03:48;;;;;;;;;22.00;20.67;;;;;20.62;100.00;99653.06;6281527;20;3578993;-42
2023/07/04 10:06:33;;;;;;;;;22.67;20.33;;;;;20.80;100.00;99658.44;6275208;20;3584638;-43
2023/07/04 10:09:11;;;;;;;;;19.00;19.00;;;;;20.83;100.00;99653.53;6278433;20;3575271;-46
2023/07/04 10:11:43;;;;;;;;;16.00;15.50;;;;;20.81;100.00;99652.81;6272185;20;2816037;-44
2023/07/04 10:14:15;;;;;;;;;17.33;15.00;;;;;20.98;100.00;99658.38;6272747;20;3545074;-42
2023/07/04 10:16:48;;;;;;;;;18.67;15.00;;;;;20.79;100.00;99659.47;6311062;20;3528585;-43
2023/07/04 10:19:22;;;;;;;;;15.33;14.67;;;;;20.67;100.00;99655.28;6307987;20;3541067;-47
2023/07/04 10:21:53;;;;;;;;;17.00;17.00;;;;;20.25;100.00;99651.38;6307694;20;3563824;-42
2023/07/04 10:24:25;;;;;;;;;18.00;18.00;;;;;20.57;100.00;99655.41;6274968;20;2834657;-43
2023/07/04 10:27:02;;;;;;;;;17.33;15.00;;;;;20.28;100.00;99661.13;6280538;20;2812834;-43
2023/07/04 10:29:48;;;;;;;;;18.00;15.00;;;;;20.48;100.00;99667.22;6305860;20;3538938;-45
2023/07/04 10:32:17;;;;;;;;;16.00;15.00;;;;;20.54;100.00;99663.91;6304179;20;2827495;-42
2023/07/04 10:34:49;;;;;;;;;21.50;16.00;;;;;20.44;100.00;99663.13;6274654;20;2834809;-45
2023/07/04 10:37:27;;;;;;;;;19.50;17.50;;;;;20.34;100.00;99663.19;6276432;20;2837143;-45
2023/07/04 10:40:04;;;;;;;;;13.00;13.00;;;;;20.38;100.00;99660.00;6274598;20;2796103;-42
2023/07/04 10:42:41;;;;;;;;;16.50;15.50;;;;;20.47;100.00;99670.97;6276940;20;2827407;-43
2023/07/04 10:45:15;;;;;;;;;15.67;15.00;;;;;20.59;100.00;99667.03;6274586;20;3544152;-51
2023/07/04 10:47:44;;;;;;;;;13.50;11.00;;;;;20.55;100.00;99662.88;6276040;20;2796165;-46
2023/07/04 10:50:22;;;;;;;;;16.00;16.00;;;;;20.62;100.00;99666.69;6273843;20;2829502;-47
2023/07/04 10:52:50;;;;;;;;;15.00;14.00;;;;;20.63;100.00;99662.09;6271008;20;3530581;-50
2023/07/04 10:55:56;;;;;;;;;18.00;15.00;;;;;20.74;100.00;99656.38;6277899;20;2823198;-49
2023/07/04 10:58:32;;;;;;;;;17.67;15.00;;;;;20.67;100.00;99660.75;6277422;20;2811907;-47
2023/07/04 11:01:22;;;;;;;;;17.67;16.33;;;;;20.88;100.00;99657.63;6313038;20;3564865;-47
2023/07/04 11:04:08;;;;;;;;;17.33;14.00;;;;;20.70;100.00;99655.84;6276883;20;3535778;-46
2023/07/04 11:06:54;;;;;;;;;21.00;17.00;;;;;20.92;100.00;99648.13;6311860;20;2844117;-49
2023/07/04 11:09:23;;;;;;;;;15.33;15.00;;;;;20.88;100.00;99654.91;6283689;20;3532705;-47
2023/07/04 11:11:52;;;;;;;;;21.33;19.00;;;;;20.64;100.00;99653.72;6315955;20;3574223;-45
2023/07/04 11:14:26;;;;;;;;;22.33;20.67;;;;;20.91;100.00;99651.88;6278245;20;2839948;-45
2023/07/04 11:16:56;;;;;;;;;16.33;15.33;;;;;20.92;100.00;99650.84;6310703;20;3558736;-45